createdAt,value
2022-09-14T00:00:18.155Z,51.30
2022-09-14T00:02:46.834Z,51.30
2022-09-14T00:05:13.697Z,51.40
2022-09-14T00:07:40.338Z,51.60
2022-09-14T00:10:07.177Z,51.50
2022-09-14T00:12:33.852Z,51.70
2022-09-14T00:15:01.234Z,51.80
2022-09-14T00:17:27.882Z,52.00
2022-09-14T00:19:54.902Z,51.90
2022-09-14T00:22:21.575Z,52.60
2022-09-14T00:24:48.221Z,52.10
2022-09-14T00:27:14.945Z,52.10
2022-09-14T00:29:41.670Z,52.20
2022-09-14T00:32:08.407Z,52.20
2022-09-14T00:34:35.622Z,52.40
2022-09-14T00:37:02.269Z,52.20
2022-09-14T00:39:28.899Z,52.20
2022-09-14T00:41:55.555Z,52.40
2022-09-14T00:44:22.720Z,52.30
2022-09-14T00:46:50.531Z,52.40
2022-09-14T00:49:18.429Z,52.30
2022-09-14T00:51:49.685Z,52.50
2022-09-14T00:54:16.375Z,52.50
2022-09-14T00:56:43.120Z,52.50
2022-09-14T00:59:11.699Z,52.50
2022-09-14T01:01:38.758Z,52.60
2022-09-14T01:04:05.469Z,52.70
2022-09-14T01:06:50.860Z,52.50
2022-09-14T01:09:23.629Z,52.30
2022-09-14T01:11:51.822Z,52.00
2022-09-14T01:14:21.694Z,51.90
2022-09-14T01:17:01.035Z,51.70
2022-09-14T01:19:39.551Z,51.40
2022-09-14T01:22:09.446Z,51.10
2022-09-14T01:24:36.106Z,51.10
2022-09-14T01:27:23.871Z,51.20
2022-09-14T01:30:09.916Z,51.30
2022-09-14T01:33:03.037Z,51.30
2022-09-14T01:35:31.063Z,51.50
2022-09-14T01:37:59.381Z,51.50
2022-09-14T01:40:26.188Z,51.70
2022-09-14T01:42:56.118Z,51.80
2022-09-14T01:45:22.804Z,51.80
2022-09-14T01:47:57.060Z,52.00
2022-09-14T01:50:34.087Z,52.00
2022-09-14T01:53:04.472Z,52.00
2022-09-14T01:55:38.138Z,52.10
2022-09-14T01:58:09.889Z,52.10
2022-09-14T02:00:38.653Z,52.20
2022-09-14T02:03:07.494Z,52.00
2022-09-14T02:05:35.156Z,52.20
2022-09-14T02:08:02.060Z,52.20
2022-09-14T02:10:29.337Z,52.30
2022-09-14T02:12:56.063Z,52.30
2022-09-14T02:15:22.825Z,52.90
2022-09-14T02:17:49.525Z,52.30
2022-09-14T02:20:42.627Z,52.30
2022-09-14T02:23:09.435Z,52.40
2022-09-14T02:25:36.584Z,52.40
2022-09-14T02:28:04.171Z,52.40
2022-09-14T02:30:52.127Z,52.30
2022-09-14T02:33:18.855Z,52.30
2022-09-14T02:35:47.396Z,52.00
2022-09-14T02:38:40.717Z,51.80
2022-09-14T02:41:27.316Z,51.60
2022-09-14T02:44:12.834Z,51.40
2022-09-14T02:46:53.481Z,51.10
2022-09-14T02:49:22.644Z,51.10
2022-09-14T02:51:52.602Z,51.10
2022-09-14T02:54:23.725Z,51.20
2022-09-14T02:56:50.417Z,51.80
2022-09-14T02:59:17.148Z,51.40
2022-09-14T03:01:43.832Z,52.00
2022-09-14T03:04:10.583Z,51.50
2022-09-14T03:06:37.242Z,51.70
2022-09-14T03:09:03.950Z,51.70
2022-09-14T03:11:30.609Z,51.80
2022-09-14T03:13:57.460Z,51.80
2022-09-14T03:16:24.219Z,51.90
2022-09-14T03:18:50.954Z,52.00
2022-09-14T03:21:17.830Z,52.00
2022-09-14T03:23:45.262Z,52.10
2022-09-14T03:26:15.923Z,52.70
2022-09-14T03:28:42.722Z,52.10
2022-09-14T03:31:09.863Z,52.10
2022-09-14T03:33:41.400Z,52.10
2022-09-14T03:36:12.516Z,52.20
2022-09-14T03:38:39.238Z,54.00
2022-09-14T03:41:09.574Z,56.90
2022-09-14T03:43:37.471Z,57.90
2022-09-14T03:46:16.170Z,58.70
2022-09-14T03:48:43.016Z,58.90
2022-09-14T03:51:10.377Z,59.40
2022-09-14T03:53:37.316Z,59.90
2022-09-14T03:56:11.189Z,59.90
2022-09-14T03:58:38.402Z,60.30
2022-09-14T04:01:09.648Z,60.50
2022-09-14T04:03:36.569Z,61.00
2022-09-14T04:06:06.180Z,61.40
2022-09-14T04:08:33.587Z,61.80
2022-09-14T04:11:00.379Z,61.80
2022-09-14T04:13:27.078Z,61.90
2022-09-14T04:15:58.049Z,62.10
2022-09-14T04:18:25.426Z,62.50
2022-09-14T04:20:58.953Z,61.70
2022-09-14T04:23:25.745Z,61.00
2022-09-14T04:25:52.701Z,60.70
2022-09-14T04:28:20.607Z,60.30
2022-09-14T04:30:57.457Z,60.10
2022-09-14T04:33:24.325Z,60.90
2022-09-14T04:35:58.139Z,61.30
2022-09-14T04:38:24.942Z,62.00
2022-09-14T04:40:51.649Z,62.10
2022-09-14T04:43:18.430Z,62.00
2022-09-14T04:45:45.711Z,62.60
2022-09-14T04:48:12.372Z,62.80
2022-09-14T04:50:39.041Z,62.90
2022-09-14T04:53:05.746Z,63.30
2022-09-14T04:55:32.389Z,63.40
2022-09-14T04:57:59.062Z,63.60
2022-09-14T05:00:25.951Z,63.90
2022-09-14T05:02:52.796Z,63.40
2022-09-14T05:05:19.529Z,63.20
2022-09-14T05:07:46.189Z,63.00
2022-09-14T05:10:12.975Z,62.20
2022-09-14T05:12:39.709Z,61.60
2022-09-14T05:15:06.733Z,60.50
2022-09-14T05:17:36.467Z,60.20
2022-09-14T05:20:03.614Z,59.50
2022-09-14T05:22:30.303Z,59.40
2022-09-14T05:24:56.993Z,59.20
2022-09-14T05:27:24.113Z,58.90
2022-09-14T05:29:50.801Z,58.70
2022-09-14T05:32:17.493Z,58.50
2022-09-14T05:34:44.241Z,58.30
2022-09-14T05:37:11.586Z,58.20
2022-09-14T05:39:38.317Z,58.00
2022-09-14T05:42:05.018Z,57.80
2022-09-14T05:44:31.669Z,57.70
2022-09-14T05:46:58.403Z,57.50
2022-09-14T05:49:25.354Z,57.40
2022-09-14T05:51:52.010Z,57.10
2022-09-14T05:54:18.726Z,57.10
2022-09-14T05:56:45.469Z,56.80
2022-09-14T05:59:12.138Z,56.50
2022-09-14T06:01:38.924Z,56.20
2022-09-14T06:04:05.647Z,56.00
2022-09-14T06:06:32.655Z,55.60
2022-09-14T06:08:59.511Z,55.30
2022-09-14T06:11:27.134Z,55.20
2022-09-14T06:13:54.400Z,55.20
2022-09-14T06:16:21.354Z,55.40
2022-09-14T06:18:48.092Z,55.20
2022-09-14T06:21:16.709Z,55.20
2022-09-14T06:23:43.800Z,55.30
2022-09-14T06:26:10.593Z,55.80
2022-09-14T06:28:37.446Z,55.30
2022-09-14T06:31:04.577Z,55.40
2022-09-14T06:33:31.559Z,55.40
2022-09-14T06:35:59.116Z,55.40
2022-09-14T06:38:26.123Z,55.40
2022-09-14T06:40:59.669Z,55.50
2022-09-14T06:43:26.913Z,55.50
2022-09-14T06:46:01.129Z,55.50
2022-09-14T06:48:28.752Z,55.60
2022-09-14T06:50:55.473Z,55.40
2022-09-14T06:53:22.244Z,55.50
2022-09-14T06:55:48.938Z,56.00
2022-09-14T06:58:15.655Z,55.40
2022-09-14T07:00:42.679Z,55.40
2022-09-14T07:03:09.408Z,55.30
2022-09-14T07:05:36.120Z,55.40
2022-09-14T07:08:02.836Z,55.30
2022-09-14T07:10:29.587Z,55.40
2022-09-14T07:12:56.275Z,55.60
2022-09-14T07:15:22.969Z,55.80
2022-09-14T07:17:49.696Z,55.70
2022-09-14T07:20:16.492Z,56.40
2022-09-14T07:22:43.347Z,55.80
2022-09-14T07:25:10.030Z,55.70
2022-09-14T07:27:39.522Z,55.40
2022-09-14T07:30:07.158Z,55.10
2022-09-14T07:32:33.870Z,55.10
2022-09-14T07:35:01.081Z,54.80
2022-09-14T07:37:28.986Z,54.70
2022-09-14T07:39:57.317Z,54.30
2022-09-14T07:42:24.135Z,54.20
2022-09-14T07:44:50.857Z,54.10
2022-09-14T07:47:17.539Z,54.20
2022-09-14T07:49:44.210Z,54.40
2022-09-14T07:52:11.772Z,54.40
2022-09-14T07:54:39.423Z,54.40
2022-09-14T07:57:06.231Z,54.30
2022-09-14T07:59:37.405Z,54.30
2022-09-14T08:02:08.148Z,55.00
2022-09-14T08:04:35.963Z,54.50
2022-09-14T08:07:02.780Z,54.40
2022-09-14T08:09:29.498Z,54.40
2022-09-14T08:11:57.261Z,54.60
2022-09-14T08:14:23.955Z,54.50
2022-09-14T08:16:50.771Z,54.60
2022-09-14T08:19:18.882Z,54.50
2022-09-14T08:21:47.719Z,54.50
2022-09-14T08:24:15.974Z,54.60
2022-09-14T08:26:42.854Z,54.50
2022-09-14T08:29:09.523Z,54.60
2022-09-14T08:31:36.795Z,54.50
2022-09-14T08:34:03.800Z,54.50
2022-09-14T08:36:31.438Z,54.50
2022-09-14T08:38:58.163Z,54.50
2022-09-14T08:41:28.395Z,54.60
2022-09-14T08:43:56.003Z,54.50
2022-09-14T08:46:25.709Z,54.50
2022-09-14T08:48:52.350Z,54.50
2022-09-14T08:51:19.047Z,54.50
2022-09-14T08:53:45.935Z,54.40
2022-09-14T08:56:13.833Z,54.30
2022-09-14T08:58:59.366Z,54.10
2022-09-14T09:01:49.561Z,53.90
2022-09-14T09:04:19.336Z,53.70
2022-09-14T09:06:48.676Z,53.30
2022-09-14T09:09:21.599Z,53.20
2022-09-14T09:11:49.514Z,53.30
2022-09-14T09:14:20.087Z,53.20
2022-09-14T09:16:47.294Z,53.20
2022-09-14T09:19:16.399Z,53.10
2022-09-14T09:21:44.002Z,53.30
2022-09-14T09:24:17.243Z,53.50
2022-09-14T09:26:43.929Z,53.50
2022-09-14T09:29:10.572Z,53.60
2022-09-14T09:31:43.787Z,53.70
2022-09-14T09:34:11.793Z,53.80
2022-09-14T09:36:40.457Z,53.90
2022-09-14T09:39:07.186Z,53.80
2022-09-14T09:41:57.342Z,53.90
2022-09-14T09:44:24.073Z,53.90
2022-09-14T09:46:51.656Z,53.90
2022-09-14T09:49:23.009Z,53.90
2022-09-14T09:51:50.510Z,53.80
2022-09-14T09:54:21.250Z,54.00
2022-09-14T09:56:55.516Z,53.90
2022-09-14T09:59:38.630Z,54.00
2022-09-14T10:02:24.303Z,53.90
2022-09-14T10:04:57.220Z,54.10
2022-09-14T10:07:23.919Z,54.00
2022-09-14T10:10:00.441Z,53.80
2022-09-14T10:12:27.425Z,53.50
2022-09-14T10:15:12.401Z,53.30
2022-09-14T10:17:39.075Z,53.20
2022-09-14T10:20:06.251Z,53.00
2022-09-14T10:22:33.691Z,52.90
2022-09-14T10:25:20.373Z,52.90
2022-09-14T10:27:52.992Z,53.00
2022-09-14T10:30:20.294Z,53.10
2022-09-14T10:32:50.086Z,53.20
2022-09-14T10:35:17.595Z,53.10
2022-09-14T10:38:03.145Z,53.00
2022-09-14T10:40:37.123Z,53.00
2022-09-14T10:43:03.828Z,53.20
2022-09-14T10:45:35.425Z,53.30
2022-09-14T10:48:06.396Z,53.40
2022-09-14T10:50:42.457Z,53.40
2022-09-14T10:53:17.243Z,53.50
2022-09-14T10:56:02.800Z,53.60
2022-09-14T10:58:51.305Z,53.60
2022-09-14T11:01:24.202Z,53.60
2022-09-14T11:04:09.807Z,53.60
2022-09-14T11:06:55.405Z,53.70
2022-09-14T11:09:30.493Z,53.70
2022-09-14T11:12:03.019Z,53.60
2022-09-14T11:14:38.871Z,53.10
2022-09-14T11:17:05.570Z,53.20
2022-09-14T11:19:52.895Z,53.00
2022-09-14T11:22:25.583Z,52.80
2022-09-14T11:24:52.327Z,52.70
2022-09-14T11:27:23.155Z,52.80
2022-09-14T11:29:51.928Z,52.90
2022-09-14T11:32:22.854Z,52.70
2022-09-14T11:35:15.794Z,53.00
2022-09-14T11:37:47.285Z,53.10
2022-09-14T11:40:25.028Z,53.10
2022-09-14T11:42:59.757Z,53.00
2022-09-14T11:45:27.231Z,53.00
2022-09-14T11:47:57.658Z,53.20
2022-09-14T11:50:25.791Z,53.10
2022-09-14T11:53:11.853Z,53.30
2022-09-14T11:55:43.924Z,53.30
2022-09-14T11:58:17.296Z,53.40
2022-09-14T12:00:45.430Z,53.40
2022-09-14T12:03:19.216Z,53.40
2022-09-14T12:05:46.490Z,53.50
2022-09-14T12:08:36.235Z,53.40
2022-09-14T12:11:06.005Z,53.10
2022-09-14T12:13:32.957Z,53.20
2022-09-14T12:16:06.641Z,52.90
2022-09-14T12:18:35.602Z,52.70
2022-09-14T12:21:02.653Z,52.50
2022-09-14T12:23:29.450Z,52.50
2022-09-14T12:25:59.237Z,52.50
2022-09-14T12:28:27.682Z,52.60
2022-09-14T12:30:54.392Z,52.60
2022-09-14T12:33:36.316Z,52.60
2022-09-14T12:36:12.166Z,52.90
2022-09-14T12:38:38.890Z,52.80
2022-09-14T12:41:08.721Z,53.10
2022-09-14T12:43:35.517Z,53.00
2022-09-14T12:46:02.571Z,53.00
2022-09-14T12:48:47.876Z,53.00
2022-09-14T12:51:14.593Z,52.90
2022-09-14T12:53:41.340Z,53.20
2022-09-14T12:56:12.841Z,53.20
2022-09-14T12:58:42.533Z,53.30
2022-09-14T13:01:24.535Z,53.30
2022-09-14T13:03:52.171Z,53.30
2022-09-14T13:06:19.308Z,53.00
2022-09-14T13:08:55.738Z,53.10
2022-09-14T13:11:23.558Z,53.10
2022-09-14T13:13:50.699Z,52.70
2022-09-14T13:16:19.825Z,52.40
2022-09-14T13:18:46.816Z,52.30
2022-09-14T13:21:24.954Z,52.20
2022-09-14T13:23:51.909Z,52.30
2022-09-14T13:26:31.633Z,52.30
2022-09-14T13:28:58.721Z,52.50
2022-09-14T13:31:35.480Z,52.50
2022-09-14T13:34:03.167Z,52.50
2022-09-14T13:36:30.649Z,52.70
2022-09-14T13:39:01.627Z,52.70
2022-09-14T13:41:28.551Z,53.10
2022-09-14T13:43:55.725Z,53.10
2022-09-14T13:46:23.047Z,53.00
2022-09-14T13:48:49.953Z,53.10
2022-09-14T13:51:16.761Z,53.00
2022-09-14T13:53:45.857Z,53.00
2022-09-14T13:56:19.777Z,53.00
2022-09-14T13:58:47.206Z,53.00
2022-09-14T14:01:14.040Z,53.00
2022-09-14T14:03:47.534Z,53.00
2022-09-14T14:06:21.767Z,53.00
2022-09-14T14:09:12.095Z,53.10
2022-09-14T14:11:41.186Z,52.80
2022-09-14T14:14:16.985Z,52.50
2022-09-14T14:17:02.429Z,52.30
2022-09-14T14:19:29.666Z,52.20
2022-09-14T14:22:14.721Z,52.20
2022-09-14T14:25:09.259Z,52.20
2022-09-14T14:27:32.901Z,52.30
2022-09-14T14:30:00.290Z,52.50
2022-09-14T14:32:27.159Z,52.50
2022-09-14T14:34:54.189Z,52.60
2022-09-14T14:37:21.291Z,52.70
2022-09-14T14:39:49.767Z,52.90
2022-09-14T14:42:16.814Z,53.10
2022-09-14T14:44:43.991Z,53.10
2022-09-14T14:47:12.037Z,53.70
2022-09-14T14:49:38.934Z,53.00
2022-09-14T14:52:06.794Z,53.30
2022-09-14T14:54:33.620Z,53.00
2022-09-14T14:57:02.188Z,52.90
2022-09-14T14:59:29.538Z,53.10
2022-09-14T15:01:56.306Z,53.20
2022-09-14T15:04:23.153Z,53.10
2022-09-14T15:06:49.956Z,53.20
2022-09-14T15:09:26.219Z,53.00
2022-09-14T15:11:54.497Z,52.80
2022-09-14T15:14:26.560Z,52.70
2022-09-14T15:16:57.933Z,52.40
2022-09-14T15:19:24.972Z,52.20
2022-09-14T15:21:51.722Z,52.20
2022-09-14T15:24:18.456Z,52.30
2022-09-14T15:26:45.154Z,52.30
2022-09-14T15:29:17.672Z,52.50
2022-09-14T15:31:44.758Z,52.60
2022-09-14T15:34:11.561Z,52.80
2022-09-14T15:36:47.845Z,52.80
2022-09-14T15:39:14.701Z,52.90
2022-09-14T15:41:41.404Z,53.10
2022-09-14T15:44:08.310Z,53.10
2022-09-14T15:46:35.106Z,53.20
2022-09-14T15:49:06.917Z,53.20
2022-09-14T15:51:34.123Z,53.20
2022-09-14T15:54:01.394Z,53.20
2022-09-14T15:56:28.131Z,53.10
2022-09-14T15:58:57.193Z,53.40
2022-09-14T16:01:23.922Z,53.50
2022-09-14T16:03:55.649Z,53.70
2022-09-14T16:06:22.430Z,53.40
2022-09-14T16:08:49.099Z,53.30
2022-09-14T16:11:15.788Z,53.40
2022-09-14T16:13:42.536Z,53.30
2022-09-14T16:16:10.119Z,53.00
2022-09-14T16:18:37.028Z,53.00
2022-09-14T16:21:10.846Z,53.10
2022-09-14T16:23:38.624Z,53.50
2022-09-14T16:26:10.357Z,54.10
2022-09-14T16:28:37.819Z,53.40
2022-09-14T16:31:08.703Z,53.80
2022-09-14T16:33:37.036Z,54.10
2022-09-14T16:36:07.627Z,54.10
2022-09-14T16:38:34.680Z,54.50
2022-09-14T16:41:01.565Z,54.40
2022-09-14T16:43:30.102Z,54.40
2022-09-14T16:46:03.701Z,54.50
2022-09-14T16:48:31.473Z,54.60
2022-09-14T16:50:58.441Z,54.50
2022-09-14T16:53:25.219Z,54.50
2022-09-14T16:56:00.164Z,54.20
2022-09-14T16:58:28.641Z,54.50
2022-09-14T17:00:56.353Z,54.50
2022-09-14T17:03:23.254Z,54.40
2022-09-14T17:05:50.615Z,54.20
2022-09-14T17:08:17.858Z,53.90
2022-09-14T17:10:46.684Z,53.60
2022-09-14T17:13:13.454Z,53.60
2022-09-14T17:15:40.269Z,53.60
2022-09-14T17:18:07.249Z,53.50
2022-09-14T17:20:34.158Z,53.50
2022-09-14T17:23:00.931Z,53.40
2022-09-14T17:25:28.946Z,53.50
2022-09-14T17:27:55.988Z,53.70
2022-09-14T17:30:22.855Z,53.80
2022-09-14T17:32:49.619Z,53.90
2022-09-14T17:35:16.881Z,54.10
2022-09-14T17:37:43.831Z,54.00
2022-09-14T17:40:11.391Z,54.10
2022-09-14T17:42:38.192Z,54.20
2022-09-14T17:45:06.630Z,54.20
2022-09-14T17:47:34.747Z,54.30
2022-09-14T17:50:02.110Z,54.20
2022-09-14T17:52:29.405Z,54.30
2022-09-14T17:54:56.357Z,54.30
2022-09-14T17:57:24.448Z,54.40
2022-09-14T17:59:51.457Z,54.40
2022-09-14T18:02:19.482Z,54.20
2022-09-14T18:04:52.336Z,54.00
2022-09-14T18:07:19.567Z,53.90
2022-09-14T18:09:46.558Z,53.60
2022-09-14T18:12:16.075Z,53.60
2022-09-14T18:14:42.909Z,54.10
2022-09-14T18:17:09.923Z,53.40
2022-09-14T18:19:36.718Z,53.60
2022-09-14T18:22:03.509Z,53.50
2022-09-14T18:24:31.205Z,53.50
2022-09-14T18:27:01.537Z,53.40
2022-09-14T18:29:29.947Z,53.70
2022-09-14T18:31:57.000Z,53.90
2022-09-14T18:34:24.905Z,54.00
2022-09-14T18:36:52.131Z,54.00
2022-09-14T18:39:18.879Z,54.10
2022-09-14T18:41:46.193Z,54.30
2022-09-14T18:44:13.011Z,54.20
2022-09-14T18:46:40.016Z,54.40
2022-09-14T18:49:06.884Z,54.40
2022-09-14T18:51:33.810Z,54.40
2022-09-14T18:54:03.354Z,54.50
2022-09-14T18:56:33.429Z,54.50
2022-09-14T18:59:00.612Z,54.60
2022-09-14T19:01:27.599Z,54.60
2022-09-14T19:03:56.082Z,54.60
2022-09-14T19:06:25.227Z,54.70
2022-09-14T19:08:52.060Z,54.50
2022-09-14T19:11:19.832Z,54.30
2022-09-14T19:13:46.745Z,54.20
2022-09-14T19:16:14.563Z,54.00
2022-09-14T19:18:41.484Z,53.90
2022-09-14T19:21:09.168Z,53.60
2022-09-14T19:23:36.481Z,53.60
2022-09-14T19:26:06.995Z,53.60
2022-09-14T19:28:33.854Z,53.50
2022-09-14T19:31:04.315Z,54.10
2022-09-14T19:33:31.189Z,53.60
2022-09-14T19:36:05.086Z,53.80
2022-09-14T19:38:31.812Z,53.90
2022-09-14T19:40:58.495Z,54.00
2022-09-14T19:43:25.187Z,53.90
2022-09-14T19:45:52.080Z,54.00
2022-09-14T19:48:18.779Z,54.00
2022-09-14T19:50:46.318Z,54.00
2022-09-14T19:53:13.026Z,54.10
2022-09-14T19:55:39.682Z,54.00
2022-09-14T19:58:06.386Z,54.00
2022-09-14T20:00:33.256Z,54.00
2022-09-14T20:02:59.999Z,54.00
2022-09-14T20:05:26.732Z,54.10
2022-09-14T20:07:53.808Z,54.00
2022-09-14T20:10:20.846Z,54.10
2022-09-14T20:12:47.619Z,54.10
2022-09-14T20:15:14.970Z,54.10
2022-09-14T20:17:44.428Z,54.10
2022-09-14T20:20:11.734Z,54.10
2022-09-14T20:22:38.524Z,54.00
2022-09-14T20:25:05.404Z,53.90
2022-09-14T20:27:32.065Z,53.70
2022-09-14T20:29:58.710Z,53.40
2022-09-14T20:32:25.553Z,53.40
2022-09-14T20:34:52.226Z,53.20
2022-09-14T20:37:18.900Z,52.90
2022-09-14T20:39:45.621Z,52.90
2022-09-14T20:42:12.313Z,52.90
2022-09-14T20:44:40.002Z,52.80
2022-09-14T20:47:06.670Z,53.00
2022-09-14T20:49:33.416Z,52.90
2022-09-14T20:52:02.551Z,53.20
2022-09-14T20:54:29.970Z,53.10
2022-09-14T20:56:59.047Z,53.20
2022-09-14T20:59:28.979Z,53.30
2022-09-14T21:01:56.002Z,53.30
2022-09-14T21:04:23.516Z,53.30
2022-09-14T21:06:53.634Z,53.20
2022-09-14T21:09:20.759Z,53.20
2022-09-14T21:11:47.532Z,53.30
2022-09-14T21:14:14.847Z,53.20
2022-09-14T21:16:43.105Z,53.50
2022-09-14T21:19:20.546Z,53.50
2022-09-14T21:21:47.448Z,53.50
2022-09-14T21:24:14.594Z,53.60
2022-09-14T21:26:42.827Z,53.50
2022-09-14T21:29:14.225Z,53.50
2022-09-14T21:31:41.062Z,53.50
2022-09-14T21:34:07.952Z,53.60
2022-09-14T21:36:35.923Z,53.60
2022-09-14T21:39:09.906Z,53.60
2022-09-14T21:41:36.847Z,53.60
2022-09-14T21:44:03.621Z,53.50
2022-09-14T21:46:30.534Z,53.30
2022-09-14T21:48:57.474Z,53.30
2022-09-14T21:51:25.958Z,53.10
2022-09-14T21:53:53.463Z,52.80
2022-09-14T21:56:20.547Z,52.80
2022-09-14T21:58:51.450Z,52.40
2022-09-14T22:01:18.571Z,52.40
2022-09-14T22:03:45.661Z,52.40
2022-09-14T22:06:13.101Z,52.50
2022-09-14T22:08:39.855Z,52.50
2022-09-14T22:11:07.113Z,52.70
2022-09-14T22:13:33.920Z,52.60
2022-09-14T22:16:10.970Z,52.80
2022-09-14T22:18:38.101Z,52.90
2022-09-14T22:21:04.995Z,53.00
2022-09-14T22:23:32.489Z,53.10
2022-09-14T22:25:59.131Z,53.20
2022-09-14T22:28:25.890Z,53.20
2022-09-14T22:30:53.338Z,53.20
2022-09-14T22:33:21.175Z,53.20
2022-09-14T22:35:52.027Z,53.20
2022-09-14T22:38:19.287Z,53.80
2022-09-14T22:40:45.948Z,53.10
2022-09-14T22:43:12.624Z,53.10
2022-09-14T22:45:39.515Z,53.10
2022-09-14T22:48:06.241Z,53.10
2022-09-14T22:50:32.930Z,53.10
2022-09-14T22:52:59.614Z,53.10
2022-09-14T22:55:26.258Z,53.20
2022-09-14T22:57:52.931Z,53.40
2022-09-14T23:00:19.853Z,53.30
2022-09-14T23:02:46.615Z,53.30
2022-09-14T23:05:13.361Z,53.40
2022-09-14T23:07:39.994Z,53.10
2022-09-14T23:10:06.791Z,53.20
2022-09-14T23:12:33.507Z,52.90
2022-09-14T23:15:00.351Z,52.70
2022-09-14T23:17:27.083Z,52.50
2022-09-14T23:19:53.756Z,52.30
2022-09-14T23:22:21.159Z,52.20
2022-09-14T23:24:48.036Z,52.30
2022-09-14T23:27:14.727Z,52.30
2022-09-14T23:29:41.678Z,52.50
2022-09-14T23:32:08.354Z,52.40
2022-09-14T23:34:35.579Z,52.60
2022-09-14T23:37:02.305Z,52.60
2022-09-14T23:39:28.979Z,52.70
2022-09-14T23:41:55.726Z,52.80
2022-09-14T23:44:22.449Z,52.80
2022-09-14T23:46:49.126Z,52.90
2022-09-14T23:49:15.784Z,52.80
2022-09-14T23:51:42.552Z,53.00
2022-09-14T23:54:10.034Z,53.10
2022-09-14T23:56:38.630Z,53.10
2022-09-14T23:59:05.961Z,53.10
